sensor_id;sensor_type;location;lat;lon;timestamp;temperature;humidity
41953;DHT22;63613;28.200;112.870;2023-06-14T00:00:17;28.20;63.60
41953;DHT22;63613;28.200;112.870;2023-06-14T00:02:44;28.30;63.90
41953;DHT22;63613;28.200;112.870;2023-06-14T00:05:10;28.30;64.70
41953;DHT22;63613;28.200;112.870;2023-06-14T00:07:42;28.30;64.80
41953;DHT22;63613;28.200;112.870;2023-06-14T00:10:13;28.30;64.80
41953;DHT22;63613;28.200;112.870;2023-06-14T00:12:41;28.40;64.90
41953;DHT22;63613;28.200;112.870;2023-06-14T00:15:08;28.30;65.10
41953;DHT22;63613;28.200;112.870;2023-06-14T00:17:38;28.30;65.20
41953;DHT22;63613;28.200;112.870;2023-06-14T00:20:05;28.40;65.30
41953;DHT22;63613;28.200;112.870;2023-06-14T00:22:32;28.40;65.20
41953;DHT22;63613;28.200;112.870;2023-06-14T00:25:02;28.40;65.20
41953;DHT22;63613;28.200;112.870;2023-06-14T00:27:49;28.40;65.10
41953;DHT22;63613;28.200;112.870;2023-06-14T00:30:16;28.40;65.00
41953;DHT22;63613;28.200;112.870;2023-06-14T00:32:44;28.40;64.90
41953;DHT22;63613;28.200;112.870;2023-06-14T00:35:11;28.40;64.80
41953;DHT22;63613;28.200;112.870;2023-06-14T00:37:39;28.40;64.80
41953;DHT22;63613;28.200;112.870;2023-06-14T00:40:07;28.40;64.70
41953;DHT22;63613;28.200;112.870;2023-06-14T00:42:34;28.40;64.70
41953;DHT22;63613;28.200;112.870;2023-06-14T00:45:01;28.40;64.70
41953;DHT22;63613;28.200;112.870;2023-06-14T00:47:28;28.40;65.00
41953;DHT22;63613;28.200;112.870;2023-06-14T00:49:55;28.40;65.00
41953;DHT22;63613;28.200;112.870;2023-06-14T00:52:23;28.50;65.00
41953;DHT22;63613;28.200;112.870;2023-06-14T00:54:53;28.50;65.10
41953;DHT22;63613;28.200;112.870;2023-06-14T00:57:20;28.40;65.00
41953;DHT22;63613;28.200;112.870;2023-06-14T00:59:50;28.50;64.90
41953;DHT22;63613;28.200;112.870;2023-06-14T01:02:17;28.50;64.80
41953;DHT22;63613;28.200;112.870;2023-06-14T01:04:48;28.40;64.90
41953;DHT22;63613;28.200;112.870;2023-06-14T01:07:53;28.50;65.20
41953;DHT22;63613;28.200;112.870;2023-06-14T01:10:27;28.50;65.20
41953;DHT22;63613;28.200;112.870;2023-06-14T01:15:34;28.50;66.10
41953;DHT22;63613;28.200;112.870;2023-06-14T01:18:04;28.50;66.10
41953;DHT22;63613;28.200;112.870;2023-06-14T01:20:34;28.50;66.70
41953;DHT22;63613;28.200;112.870;2023-06-14T01:23:04;28.40;66.50
41953;DHT22;63613;28.200;112.870;2023-06-14T01:25:31;28.40;66.90
41953;DHT22;63613;28.200;112.870;2023-06-14T01:28:00;28.40;67.00
41953;DHT22;63613;28.200;112.870;2023-06-14T01:30:30;28.40;67.10
41953;DHT22;63613;28.200;112.870;2023-06-14T01:32:59;28.40;66.90
41953;DHT22;63613;28.200;112.870;2023-06-14T01:35:26;28.40;66.90
41953;DHT22;63613;28.200;112.870;2023-06-14T01:37:53;28.40;66.70
41953;DHT22;63613;28.200;112.870;2023-06-14T01:40:21;28.40;66.40
41953;DHT22;63613;28.200;112.870;2023-06-14T01:43:09;28.40;66.20
41953;DHT22;63613;28.200;112.870;2023-06-14T01:45:37;28.40;66.10
41953;DHT22;63613;28.200;112.870;2023-06-14T01:48:04;28.50;65.90
41953;DHT22;63613;28.200;112.870;2023-06-14T01:50:31;28.40;65.40
41953;DHT22;63613;28.200;112.870;2023-06-14T01:52:58;28.40;64.00
41953;DHT22;63613;28.200;112.870;2023-06-14T01:55:27;28.40;63.70
41953;DHT22;63613;28.200;112.870;2023-06-14T01:57:54;28.40;63.20
41953;DHT22;63613;28.200;112.870;2023-06-14T02:00:21;28.40;63.30
41953;DHT22;63613;28.200;112.870;2023-06-14T02:02:48;28.50;63.00
41953;DHT22;63613;28.200;112.870;2023-06-14T02:05:35;28.40;63.20
41953;DHT22;63613;28.200;112.870;2023-06-14T02:08:05;28.40;63.40
41953;DHT22;63613;28.200;112.870;2023-06-14T02:10:32;28.50;63.50
41953;DHT22;63613;28.200;112.870;2023-06-14T02:12:59;28.50;63.30
41953;DHT22;63613;28.200;112.870;2023-06-14T02:15:45;28.50;63.30
41953;DHT22;63613;28.200;112.870;2023-06-14T02:18:12;28.40;63.00
41953;DHT22;63613;28.200;112.870;2023-06-14T02:20:39;28.40;62.70
41953;DHT22;63613;28.200;112.870;2023-06-14T02:23:06;28.40;62.70
41953;DHT22;63613;28.200;112.870;2023-06-14T02:25:33;28.40;62.80
41953;DHT22;63613;28.200;112.870;2023-06-14T02:28:01;28.40;62.70
41953;DHT22;63613;28.200;112.870;2023-06-14T02:30:28;28.40;62.80
41953;DHT22;63613;28.200;112.870;2023-06-14T02:32:55;28.40;62.70
41953;DHT22;63613;28.200;112.870;2023-06-14T02:35:21;28.40;62.90
41953;DHT22;63613;28.200;112.870;2023-06-14T02:37:53;28.40;63.20
41953;DHT22;63613;28.200;112.870;2023-06-14T02:40:20;28.40;63.30
41953;DHT22;63613;28.200;112.870;2023-06-14T02:42:47;28.50;63.20
41953;DHT22;63613;28.200;112.870;2023-06-14T02:45:17;28.50;63.20
41953;DHT22;63613;28.200;112.870;2023-06-14T02:47:44;28.50;63.10
41953;DHT22;63613;28.200;112.870;2023-06-14T02:50:11;28.50;63.00
41953;DHT22;63613;28.200;112.870;2023-06-14T02:52:38;28.50;63.30
41953;DHT22;63613;28.200;112.870;2023-06-14T02:55:08;28.50;63.60
41953;DHT22;63613;28.200;112.870;2023-06-14T02:57:38;28.50;63.80
41953;DHT22;63613;28.200;112.870;2023-06-14T03:00:05;28.60;64.10
41953;DHT22;63613;28.200;112.870;2023-06-14T03:02:35;28.60;64.40
41953;DHT22;63613;28.200;112.870;2023-06-14T03:05:02;28.60;64.90
41953;DHT22;63613;28.200;112.870;2023-06-14T03:07:31;28.70;65.30
41953;DHT22;63613;28.200;112.870;2023-06-14T03:09:58;28.70;65.50
41953;DHT22;63613;28.200;112.870;2023-06-14T03:12:25;28.60;65.70
41953;DHT22;63613;28.200;112.870;2023-06-14T03:14:54;28.70;65.90
41953;DHT22;63613;28.200;112.870;2023-06-14T03:17:23;28.70;66.00
41953;DHT22;63613;28.200;112.870;2023-06-14T03:19:50;28.70;65.90
41953;DHT22;63613;28.200;112.870;2023-06-14T03:22:17;28.70;65.90
41953;DHT22;63613;28.200;112.870;2023-06-14T03:24:44;28.70;65.90
41953;DHT22;63613;28.200;112.870;2023-06-14T03:27:11;28.70;65.70
41953;DHT22;63613;28.200;112.870;2023-06-14T03:29:38;28.70;65.50
41953;DHT22;63613;28.200;112.870;2023-06-14T03:32:06;28.70;65.30
41953;DHT22;63613;28.200;112.870;2023-06-14T03:34:33;28.70;64.70
41953;DHT22;63613;28.200;112.870;2023-06-14T03:37:01;28.70;64.30
41953;DHT22;63613;28.200;112.870;2023-06-14T03:39:27;28.70;63.80
41953;DHT22;63613;28.200;112.870;2023-06-14T03:41:54;28.70;63.20
41953;DHT22;63613;28.200;112.870;2023-06-14T03:44:21;28.70;62.40
41953;DHT22;63613;28.200;112.870;2023-06-14T03:46:48;28.70;61.70
41953;DHT22;63613;28.200;112.870;2023-06-14T03:49:14;28.70;61.30
41953;DHT22;63613;28.200;112.870;2023-06-14T03:51:43;28.70;61.10
41953;DHT22;63613;28.200;112.870;2023-06-14T03:54:12;28.70;61.00
41953;DHT22;63613;28.200;112.870;2023-06-14T03:56:39;28.70;60.90
41953;DHT22;63613;28.200;112.870;2023-06-14T03:59:06;28.70;61.20
41953;DHT22;63613;28.200;112.870;2023-06-14T04:01:33;28.70;61.40
41953;DHT22;63613;28.200;112.870;2023-06-14T04:04:00;28.70;61.30
41953;DHT22;63613;28.200;112.870;2023-06-14T04:06:27;28.70;61.30
41953;DHT22;63613;28.200;112.870;2023-06-14T04:08:59;28.70;61.40
41953;DHT22;63613;28.200;112.870;2023-06-14T04:11:30;28.70;61.70
41953;DHT22;63613;28.200;112.870;2023-06-14T04:13:58;28.70;62.00
41953;DHT22;63613;28.200;112.870;2023-06-14T04:16:49;28.70;62.10
41953;DHT22;63613;28.200;112.870;2023-06-14T04:19:16;28.70;62.00
41953;DHT22;63613;28.200;112.870;2023-06-14T04:21:44;28.70;61.80
41953;DHT22;63613;28.200;112.870;2023-06-14T04:24:11;28.70;61.80
41953;DHT22;63613;28.200;112.870;2023-06-14T04:26:43;28.70;61.90
41953;DHT22;63613;28.200;112.870;2023-06-14T04:29:14;28.70;61.90
41953;DHT22;63613;28.200;112.870;2023-06-14T04:31:46;28.70;62.00
41953;DHT22;63613;28.200;112.870;2023-06-14T04:34:13;28.70;62.20
41953;DHT22;63613;28.200;112.870;2023-06-14T04:36:45;28.80;62.30
41953;DHT22;63613;28.200;112.870;2023-06-14T04:39:22;28.80;62.20
41953;DHT22;63613;28.200;112.870;2023-06-14T04:41:50;28.80;61.80
41953;DHT22;63613;28.200;112.870;2023-06-14T04:44:23;28.80;61.60
41953;DHT22;63613;28.200;112.870;2023-06-14T04:46:57;28.80;61.60
41953;DHT22;63613;28.200;112.870;2023-06-14T04:49:25;28.80;61.60
41953;DHT22;63613;28.200;112.870;2023-06-14T04:51:53;28.80;61.60
41953;DHT22;63613;28.200;112.870;2023-06-14T04:54:27;28.80;61.90
41953;DHT22;63613;28.200;112.870;2023-06-14T04:56:58;28.80;62.00
41953;DHT22;63613;28.200;112.870;2023-06-14T04:59:25;28.90;62.10
41953;DHT22;63613;28.200;112.870;2023-06-14T05:01:52;28.90;62.20
41953;DHT22;63613;28.200;112.870;2023-06-14T05:04:19;28.90;62.30
41953;DHT22;63613;28.200;112.870;2023-06-14T05:06:48;29.00;62.40
41953;DHT22;63613;28.200;112.870;2023-06-14T05:09:36;29.00;62.60
41953;DHT22;63613;28.200;112.870;2023-06-14T05:12:06;29.00;62.60
41953;DHT22;63613;28.200;112.870;2023-06-14T05:14:36;29.10;62.40
41953;DHT22;63613;28.200;112.870;2023-06-14T05:17:03;29.10;62.20
41953;DHT22;63613;28.200;112.870;2023-06-14T05:19:30;29.10;62.10
41953;DHT22;63613;28.200;112.870;2023-06-14T05:21:57;29.20;61.90
41953;DHT22;63613;28.200;112.870;2023-06-14T05:24:23;29.20;61.70
41953;DHT22;63613;28.200;112.870;2023-06-14T05:26:50;29.20;61.50
41953;DHT22;63613;28.200;112.870;2023-06-14T05:32:06;29.30;61.50
41953;DHT22;63613;28.200;112.870;2023-06-14T05:34:36;29.30;61.30
41953;DHT22;63613;28.200;112.870;2023-06-14T05:37:03;29.30;61.30
41953;DHT22;63613;28.200;112.870;2023-06-14T05:39:30;29.30;61.20
41953;DHT22;63613;28.200;112.870;2023-06-14T05:41:59;29.30;61.00
41953;DHT22;63613;28.200;112.870;2023-06-14T05:44:28;29.40;60.80
41953;DHT22;63613;28.200;112.870;2023-06-14T05:46:54;29.40;60.70
41953;DHT22;63613;28.200;112.870;2023-06-14T05:49:21;29.40;60.80
41953;DHT22;63613;28.200;112.870;2023-06-14T05:51:50;29.40;60.90
41953;DHT22;63613;28.200;112.870;2023-06-14T05:54:18;29.40;61.10
41953;DHT22;63613;28.200;112.870;2023-06-14T05:56:50;29.40;61.30
41953;DHT22;63613;28.200;112.870;2023-06-14T05:59:17;29.40;61.40
41953;DHT22;63613;28.200;112.870;2023-06-14T06:01:44;29.50;61.40
41953;DHT22;63613;28.200;112.870;2023-06-14T06:04:11;29.50;60.80
41953;DHT22;63613;28.200;112.870;2023-06-14T06:06:42;29.50;59.40
41953;DHT22;63613;28.200;112.870;2023-06-14T06:09:09;29.60;59.20
41953;DHT22;63613;28.200;112.870;2023-06-14T06:11:36;29.60;59.40
41953;DHT22;63613;28.200;112.870;2023-06-14T06:14:04;29.60;59.80
41953;DHT22;63613;28.200;112.870;2023-06-14T06:16:33;29.60;60.00
41953;DHT22;63613;28.200;112.870;2023-06-14T06:19:00;29.60;60.30
41953;DHT22;63613;28.200;112.870;2023-06-14T06:21:26;29.60;60.40
41953;DHT22;63613;28.200;112.870;2023-06-14T06:23:53;29.60;60.50
41953;DHT22;63613;28.200;112.870;2023-06-14T06:26:22;29.60;60.50
41953;DHT22;63613;28.200;112.870;2023-06-14T06:28:49;29.60;60.50
41953;DHT22;63613;28.200;112.870;2023-06-14T06:31:16;29.60;60.40
41953;DHT22;63613;28.200;112.870;2023-06-14T06:33:46;29.60;60.40
41953;DHT22;63613;28.200;112.870;2023-06-14T06:36:14;29.70;60.30
41953;DHT22;63613;28.200;112.870;2023-06-14T06:38:45;29.70;60.20
41953;DHT22;63613;28.200;112.870;2023-06-14T06:41:14;29.70;60.10
41953;DHT22;63613;28.200;112.870;2023-06-14T06:43:42;29.70;60.00
41953;DHT22;63613;28.200;112.870;2023-06-14T06:46:10;29.60;60.00
41953;DHT22;63613;28.200;112.870;2023-06-14T06:48:38;29.60;60.10
41953;DHT22;63613;28.200;112.870;2023-06-14T06:51:06;29.70;60.10
41953;DHT22;63613;28.200;112.870;2023-06-14T06:53:32;29.70;60.10
41953;DHT22;63613;28.200;112.870;2023-06-14T06:55:59;29.70;60.10
41953;DHT22;63613;28.200;112.870;2023-06-14T06:58:26;29.80;60.20
41953;DHT22;63613;28.200;112.870;2023-06-14T07:00:53;29.80;60.30
41953;DHT22;63613;28.200;112.870;2023-06-14T07:03:20;29.70;60.40
41953;DHT22;63613;28.200;112.870;2023-06-14T07:05:46;29.80;60.40
41953;DHT22;63613;28.200;112.870;2023-06-14T07:08:19;29.70;60.30
41953;DHT22;63613;28.200;112.870;2023-06-14T07:11:07;29.70;60.30
41953;DHT22;63613;28.200;112.870;2023-06-14T07:13:34;29.80;60.20
41953;DHT22;63613;28.200;112.870;2023-06-14T07:16:01;29.70;60.30
41953;DHT22;63613;28.200;112.870;2023-06-14T07:18:27;29.70;60.40
41953;DHT22;63613;28.200;112.870;2023-06-14T07:20:54;29.70;60.40
41953;DHT22;63613;28.200;112.870;2023-06-14T07:23:22;29.70;60.40
41953;DHT22;63613;28.200;112.870;2023-06-14T07:25:49;29.70;60.30
41953;DHT22;63613;28.200;112.870;2023-06-14T07:28:17;29.70;60.20
41953;DHT22;63613;28.200;112.870;2023-06-14T07:30:44;29.70;60.10
41953;DHT22;63613;28.200;112.870;2023-06-14T07:33:11;29.70;60.10
41953;DHT22;63613;28.200;112.870;2023-06-14T07:35:41;29.70;60.10
41953;DHT22;63613;28.200;112.870;2023-06-14T07:38:07;29.70;60.00
41953;DHT22;63613;28.200;112.870;2023-06-14T07:40:34;29.70;59.80
41953;DHT22;63613;28.200;112.870;2023-06-14T07:43:01;29.70;59.80
41953;DHT22;63613;28.200;112.870;2023-06-14T07:45:31;29.70;59.80
41953;DHT22;63613;28.200;112.870;2023-06-14T07:47:58;29.80;59.80
41953;DHT22;63613;28.200;112.870;2023-06-14T07:50:29;29.70;59.90
41953;DHT22;63613;28.200;112.870;2023-06-14T07:53:19;29.80;59.90
41953;DHT22;63613;28.200;112.870;2023-06-14T07:55:46;29.80;60.00
41953;DHT22;63613;28.200;112.870;2023-06-14T07:58:13;29.80;60.00
41953;DHT22;63613;28.200;112.870;2023-06-14T08:00:42;29.70;60.00
41953;DHT22;63613;28.200;112.870;2023-06-14T08:03:08;29.70;60.10
41953;DHT22;63613;28.200;112.870;2023-06-14T08:05:38;29.70;60.20
41953;DHT22;63613;28.200;112.870;2023-06-14T08:08:06;29.70;60.20
41953;DHT22;63613;28.200;112.870;2023-06-14T08:10:34;29.70;60.30
41953;DHT22;63613;28.200;112.870;2023-06-14T08:13:01;29.70;60.30
41953;DHT22;63613;28.200;112.870;2023-06-14T08:15:28;29.70;60.40
41953;DHT22;63613;28.200;112.870;2023-06-14T08:17:55;29.70;60.50
41953;DHT22;63613;28.200;112.870;2023-06-14T08:20:22;29.60;60.60
41953;DHT22;63613;28.200;112.870;2023-06-14T08:22:49;29.60;60.60
41953;DHT22;63613;28.200;112.870;2023-06-14T08:25:21;29.60;60.50
41953;DHT22;63613;28.200;112.870;2023-06-14T08:27:49;29.60;60.40
41953;DHT22;63613;28.200;112.870;2023-06-14T08:30:16;29.60;60.40
41953;DHT22;63613;28.200;112.870;2023-06-14T08:32:44;29.70;60.50
41953;DHT22;63613;28.200;112.870;2023-06-14T08:35:11;29.70;60.60
41953;DHT22;63613;28.200;112.870;2023-06-14T08:37:40;29.60;60.70
41953;DHT22;63613;28.200;112.870;2023-06-14T08:40:21;29.60;60.80
41953;DHT22;63613;28.200;112.870;2023-06-14T08:42:52;29.60;60.80
41953;DHT22;63613;28.200;112.870;2023-06-14T08:45:28;29.60;60.80
41953;DHT22;63613;28.200;112.870;2023-06-14T08:47:54;29.60;60.70
41953;DHT22;63613;28.200;112.870;2023-06-14T08:50:26;29.60;60.60
41953;DHT22;63613;28.200;112.870;2023-06-14T08:53:00;29.50;60.70
41953;DHT22;63613;28.200;112.870;2023-06-14T08:55:30;29.50;61.20
41953;DHT22;63613;28.200;112.870;2023-06-14T08:57:57;29.50;62.00
41953;DHT22;63613;28.200;112.870;2023-06-14T09:00:27;29.50;63.00
41953;DHT22;63613;28.200;112.870;2023-06-14T09:02:54;29.50;63.90
41953;DHT22;63613;28.200;112.870;2023-06-14T09:05:27;29.50;64.70
41953;DHT22;63613;28.200;112.870;2023-06-14T09:07:55;29.50;65.90
41953;DHT22;63613;28.200;112.870;2023-06-14T09:10:29;29.40;66.50
41953;DHT22;63613;28.200;112.870;2023-06-14T09:13:17;29.40;67.20
41953;DHT22;63613;28.200;112.870;2023-06-14T09:15:44;29.40;67.90
41953;DHT22;63613;28.200;112.870;2023-06-14T09:18:38;29.40;68.40
41953;DHT22;63613;28.200;112.870;2023-06-14T09:21:10;29.30;69.20
41953;DHT22;63613;28.200;112.870;2023-06-14T09:23:44;29.30;69.30
41953;DHT22;63613;28.200;112.870;2023-06-14T09:26:16;29.30;69.90
41953;DHT22;63613;28.200;112.870;2023-06-14T09:28:47;29.30;70.30
41953;DHT22;63613;28.200;112.870;2023-06-14T09:31:17;29.30;70.90
41953;DHT22;63613;28.200;112.870;2023-06-14T09:33:44;29.30;71.20
41953;DHT22;63613;28.200;112.870;2023-06-14T09:36:18;29.30;71.30
41953;DHT22;63613;28.200;112.870;2023-06-14T09:38:59;29.30;71.50
41953;DHT22;63613;28.200;112.870;2023-06-14T09:41:34;29.40;71.70
41953;DHT22;63613;28.200;112.870;2023-06-14T09:44:02;29.40;71.70
41953;DHT22;63613;28.200;112.870;2023-06-14T09:46:30;29.40;72.00
41953;DHT22;63613;28.200;112.870;2023-06-14T09:49:01;29.30;71.90
41953;DHT22;63613;28.200;112.870;2023-06-14T09:51:29;29.40;72.30
41953;DHT22;63613;28.200;112.870;2023-06-14T09:54:03;29.30;72.50
41953;DHT22;63613;28.200;112.870;2023-06-14T09:59:00;29.30;72.50
41953;DHT22;63613;28.200;112.870;2023-06-14T10:01:31;29.30;72.40
41953;DHT22;63613;28.200;112.870;2023-06-14T10:04:04;29.30;72.10
41953;DHT22;63613;28.200;112.870;2023-06-14T10:06:32;29.30;71.90
41953;DHT22;63613;28.200;112.870;2023-06-14T10:09:04;29.20;71.80
41953;DHT22;63613;28.200;112.870;2023-06-14T10:11:31;29.20;71.60
41953;DHT22;63613;28.200;112.870;2023-06-14T10:13:59;29.20;69.60
41953;DHT22;63613;28.200;112.870;2023-06-14T10:22:38;29.20;67.90
41953;DHT22;63613;28.200;112.870;2023-06-14T10:25:10;29.20;68.00
41953;DHT22;63613;28.200;112.870;2023-06-14T10:27:39;29.10;67.90
41953;DHT22;63613;28.200;112.870;2023-06-14T10:30:15;29.10;67.70
41953;DHT22;63613;28.200;112.870;2023-06-14T10:33:04;29.10;67.80
41953;DHT22;63613;28.200;112.870;2023-06-14T10:35:32;29.00;67.80
41953;DHT22;63613;28.200;112.870;2023-06-14T10:38:14;29.00;67.70
41953;DHT22;63613;28.200;112.870;2023-06-14T10:40:42;29.00;68.00
41953;DHT22;63613;28.200;112.870;2023-06-14T10:43:24;29.00;68.00
41953;DHT22;63613;28.200;112.870;2023-06-14T10:48:46;28.90;68.10
41953;DHT22;63613;28.200;112.870;2023-06-14T10:51:21;28.90;68.10
41953;DHT22;63613;28.200;112.870;2023-06-14T10:53:49;28.80;68.10
41953;DHT22;63613;28.200;112.870;2023-06-14T10:56:30;28.90;68.30
41953;DHT22;63613;28.200;112.870;2023-06-14T10:58:57;28.80;69.40
41953;DHT22;63613;28.200;112.870;2023-06-14T11:01:41;28.80;70.00
41953;DHT22;63613;28.200;112.870;2023-06-14T11:04:17;28.80;70.60
41953;DHT22;63613;28.200;112.870;2023-06-14T11:06:48;28.80;71.00
41953;DHT22;63613;28.200;112.870;2023-06-14T11:12:48;28.70;71.70
41953;DHT22;63613;28.200;112.870;2023-06-14T11:15:15;28.70;71.70
41953;DHT22;63613;28.200;112.870;2023-06-14T11:17:52;28.70;72.00
41953;DHT22;63613;28.200;112.870;2023-06-14T11:20:25;28.70;72.10
41953;DHT22;63613;28.200;112.870;2023-06-14T11:22:55;28.70;72.10
41953;DHT22;63613;28.200;112.870;2023-06-14T11:25:21;28.70;72.10
41953;DHT22;63613;28.200;112.870;2023-06-14T11:27:52;28.70;72.20
41953;DHT22;63613;28.200;112.870;2023-06-14T11:30:19;28.70;72.30
41953;DHT22;63613;28.200;112.870;2023-06-14T11:33:10;28.70;72.40
41953;DHT22;63613;28.200;112.870;2023-06-14T11:35:38;28.70;72.50
41953;DHT22;63613;28.200;112.870;2023-06-14T11:38:05;28.70;72.40
41953;DHT22;63613;28.200;112.870;2023-06-14T11:40:34;28.70;72.40
41953;DHT22;63613;28.200;112.870;2023-06-14T11:43:02;28.70;72.40
41953;DHT22;63613;28.200;112.870;2023-06-14T11:45:31;28.70;72.40
41953;DHT22;63613;28.200;112.870;2023-06-14T11:47:58;28.70;72.40
41953;DHT22;63613;28.200;112.870;2023-06-14T11:50:50;28.70;72.30
41953;DHT22;63613;28.200;112.870;2023-06-14T11:53:18;28.70;72.50
41953;DHT22;63613;28.200;112.870;2023-06-14T11:55:47;28.70;72.70
41953;DHT22;63613;28.200;112.870;2023-06-14T11:58:14;28.60;72.80
41953;DHT22;63613;28.200;112.870;2023-06-14T12:00:41;28.60;73.10
41953;DHT22;63613;28.200;112.870;2023-06-14T12:03:09;28.50;73.10
41953;DHT22;63613;28.200;112.870;2023-06-14T12:06:11;28.60;73.20
41953;DHT22;63613;28.200;112.870;2023-06-14T12:08:39;28.50;73.30
41953;DHT22;63613;28.200;112.870;2023-06-14T12:11:14;28.50;73.40
41953;DHT22;63613;28.200;112.870;2023-06-14T12:13:42;28.50;73.70
41953;DHT22;63613;28.200;112.870;2023-06-14T12:16:10;28.50;73.60
41953;DHT22;63613;28.200;112.870;2023-06-14T12:18:39;28.50;73.60
41953;DHT22;63613;28.200;112.870;2023-06-14T12:21:07;28.50;73.70
41953;DHT22;63613;28.200;112.870;2023-06-14T12:23:43;28.40;73.60
41953;DHT22;63613;28.200;112.870;2023-06-14T12:26:15;28.50;73.40
41953;DHT22;63613;28.200;112.870;2023-06-14T12:28:44;28.50;73.30
41953;DHT22;63613;28.200;112.870;2023-06-14T12:31:15;28.50;73.30
41953;DHT22;63613;28.200;112.870;2023-06-14T12:33:45;28.40;73.60
41953;DHT22;63613;28.200;112.870;2023-06-14T12:36:16;28.40;73.90
41953;DHT22;63613;28.200;112.870;2023-06-14T12:38:47;28.30;73.80
41953;DHT22;63613;28.200;112.870;2023-06-14T12:41:14;28.30;74.00
41953;DHT22;63613;28.200;112.870;2023-06-14T12:43:43;28.30;74.00
41953;DHT22;63613;28.200;112.870;2023-06-14T12:46:10;28.30;73.60
41953;DHT22;63613;28.200;112.870;2023-06-14T12:48:37;28.30;73.70
41953;DHT22;63613;28.200;112.870;2023-06-14T12:51:03;28.30;73.70
41953;DHT22;63613;28.200;112.870;2023-06-14T12:53:30;28.30;73.70
41953;DHT22;63613;28.200;112.870;2023-06-14T12:55:57;28.20;73.60
41953;DHT22;63613;28.200;112.870;2023-06-14T12:58:24;28.20;73.90
41953;DHT22;63613;28.200;112.870;2023-06-14T13:00:51;28.20;74.00
41953;DHT22;63613;28.200;112.870;2023-06-14T13:03:18;28.20;74.20
41953;DHT22;63613;28.200;112.870;2023-06-14T13:05:45;28.20;74.30
41953;DHT22;63613;28.200;112.870;2023-06-14T13:08:12;28.20;74.40
41953;DHT22;63613;28.200;112.870;2023-06-14T13:10:39;28.20;74.40
41953;DHT22;63613;28.200;112.870;2023-06-14T13:13:06;28.20;74.60
41953;DHT22;63613;28.200;112.870;2023-06-14T13:15:33;28.20;74.60
41953;DHT22;63613;28.200;112.870;2023-06-14T13:18:00;28.30;74.60
41953;DHT22;63613;28.200;112.870;2023-06-14T13:20:30;28.20;74.70
41953;DHT22;63613;28.200;112.870;2023-06-14T13:22:56;28.20;74.90
41953;DHT22;63613;28.200;112.870;2023-06-14T13:25:27;28.20;75.10
41953;DHT22;63613;28.200;112.870;2023-06-14T13:27:54;28.20;75.30
41953;DHT22;63613;28.200;112.870;2023-06-14T13:30:21;28.20;75.40
41953;DHT22;63613;28.200;112.870;2023-06-14T13:32:48;28.20;75.50
41953;DHT22;63613;28.200;112.870;2023-06-14T13:35:14;28.20;75.40
41953;DHT22;63613;28.200;112.870;2023-06-14T13:37:46;28.20;75.60
41953;DHT22;63613;28.200;112.870;2023-06-14T13:40:13;28.20;75.50
41953;DHT22;63613;28.200;112.870;2023-06-14T13:42:42;28.20;75.60
41953;DHT22;63613;28.200;112.870;2023-06-14T13:45:12;28.30;75.50
41953;DHT22;63613;28.200;112.870;2023-06-14T13:47:42;28.30;75.30
41953;DHT22;63613;28.200;112.870;2023-06-14T13:50:30;28.30;75.30
41953;DHT22;63613;28.200;112.870;2023-06-14T13:52:59;28.30;75.30
41953;DHT22;63613;28.200;112.870;2023-06-14T13:55:28;28.20;75.20
41953;DHT22;63613;28.200;112.870;2023-06-14T13:57:58;28.30;75.20
41953;DHT22;63613;28.200;112.870;2023-06-14T14:00:25;28.30;75.00
41953;DHT22;63613;28.200;112.870;2023-06-14T14:02:53;28.30;75.10
41953;DHT22;63613;28.200;112.870;2023-06-14T14:05:20;28.30;75.10
41953;DHT22;63613;28.200;112.870;2023-06-14T14:07:54;28.30;75.00
41953;DHT22;63613;28.200;112.870;2023-06-14T14:10:24;28.30;75.30
41953;DHT22;63613;28.200;112.870;2023-06-14T14:12:52;28.30;75.50
41953;DHT22;63613;28.200;112.870;2023-06-14T14:15:23;28.20;75.20
41953;DHT22;63613;28.200;112.870;2023-06-14T14:17:55;28.30;75.10
41953;DHT22;63613;28.200;112.870;2023-06-14T14:20:24;28.30;75.10
41953;DHT22;63613;28.200;112.870;2023-06-14T14:22:53;28.30;75.00
41953;DHT22;63613;28.200;112.870;2023-06-14T14:25:21;28.30;75.10
41953;DHT22;63613;28.200;112.870;2023-06-14T14:27:50;28.30;75.20
41953;DHT22;63613;28.200;112.870;2023-06-14T14:30:40;28.30;75.10
41953;DHT22;63613;28.200;112.870;2023-06-14T14:33:08;28.30;75.00
41953;DHT22;63613;28.200;112.870;2023-06-14T14:35:59;28.30;74.90
41953;DHT22;63613;28.200;112.870;2023-06-14T14:38:30;28.20;74.80
41953;DHT22;63613;28.200;112.870;2023-06-14T14:41:01;28.20;75.00
41953;DHT22;63613;28.200;112.870;2023-06-14T14:43:29;28.20;74.90
41953;DHT22;63613;28.200;112.870;2023-06-14T14:45:59;28.20;74.80
41953;DHT22;63613;28.200;112.870;2023-06-14T14:48:32;28.20;74.90
41953;DHT22;63613;28.200;112.870;2023-06-14T14:50:58;28.20;74.90
41953;DHT22;63613;28.200;112.870;2023-06-14T14:53:45;28.20;74.80
41953;DHT22;63613;28.200;112.870;2023-06-14T14:56:14;28.20;74.80
41953;DHT22;63613;28.200;112.870;2023-06-14T14:58:41;28.20;74.80
41953;DHT22;63613;28.200;112.870;2023-06-14T15:01:10;28.20;74.60
41953;DHT22;63613;28.200;112.870;2023-06-14T15:03:41;28.20;74.60
41953;DHT22;63613;28.200;112.870;2023-06-14T15:06:08;28.20;74.50
41953;DHT22;63613;28.200;112.870;2023-06-14T15:08:37;28.20;74.60
41953;DHT22;63613;28.200;112.870;2023-06-14T15:11:09;28.20;74.60
41953;DHT22;63613;28.200;112.870;2023-06-14T15:13:40;28.20;74.50
41953;DHT22;63613;28.200;112.870;2023-06-14T15:16:10;28.20;74.50
41953;DHT22;63613;28.200;112.870;2023-06-14T15:18:37;28.10;74.40
41953;DHT22;63613;28.200;112.870;2023-06-14T15:21:04;28.20;74.20
41953;DHT22;63613;28.200;112.870;2023-06-14T15:23:31;28.10;74.20
41953;DHT22;63613;28.200;112.870;2023-06-14T15:25:58;28.20;74.20
41953;DHT22;63613;28.200;112.870;2023-06-14T15:28:25;28.10;74.00
41953;DHT22;63613;28.200;112.870;2023-06-14T15:31:00;28.10;73.90
41953;DHT22;63613;28.200;112.870;2023-06-14T15:33:29;28.10;73.90
41953;DHT22;63613;28.200;112.870;2023-06-14T15:36:05;28.10;73.80
41953;DHT22;63613;28.200;112.870;2023-06-14T15:38:35;28.00;73.70